sensor_id;sensor_type;location;lat;lon;timestamp;temperature;humidity
68354;DHT22;55274;43.060;25.618;2024-02-23T12:31:49;21.00;40.60
68354;DHT22;55274;43.060;25.618;2024-02-23T12:34:16;21.40;39.50
68354;DHT22;55274;43.060;25.618;2024-02-23T12:36:42;21.40;39.50
68354;DHT22;55274;43.060;25.618;2024-02-23T12:39:08;21.50;40.10
68354;DHT22;55274;43.060;25.618;2024-02-23T12:41:34;21.40;40.50
68354;DHT22;55274;43.060;25.618;2024-02-23T12:44:00;21.40;40.10
68354;DHT22;55274;43.060;25.618;2024-02-23T12:46:25;21.40;41.20
68354;DHT22;55274;43.060;25.618;2024-02-23T12:48:51;21.30;41.60
68354;DHT22;55274;43.060;25.618;2024-02-23T12:51:17;21.30;42.20
68354;DHT22;55274;43.060;25.618;2024-02-23T12:53:43;21.20;42.00
68354;DHT22;55274;43.060;25.618;2024-02-23T12:56:13;21.10;41.20
68354;DHT22;55274;43.060;25.618;2024-02-23T12:58:42;21.10;41.20
68354;DHT22;55274;43.060;25.618;2024-02-23T13:01:08;21.00;41.80
68354;DHT22;55274;43.060;25.618;2024-02-23T13:03:35;20.90;44.30
68354;DHT22;55274;43.060;25.618;2024-02-23T13:06:01;20.80;43.40
68354;DHT22;55274;43.060;25.618;2024-02-23T13:08:28;20.70;43.20
68354;DHT22;55274;43.060;25.618;2024-02-23T13:10:54;20.70;42.70
68354;DHT22;55274;43.060;25.618;2024-02-23T13:13:21;20.70;41.80
68354;DHT22;55274;43.060;25.618;2024-02-23T13:15:48;20.70;41.10
68354;DHT22;55274;43.060;25.618;2024-02-23T13:18:14;20.80;41.30
68354;DHT22;55274;43.060;25.618;2024-02-23T13:20:41;20.80;41.70
68354;DHT22;55274;43.060;25.618;2024-02-23T13:23:10;20.60;41.40
68354;DHT22;55274;43.060;25.618;2024-02-23T13:25:38;20.60;41.80
68354;DHT22;55274;43.060;25.618;2024-02-23T13:28:04;20.60;42.40
68354;DHT22;55274;43.060;25.618;2024-02-23T13:30:30;20.50;44.90
68354;DHT22;55274;43.060;25.618;2024-02-23T13:32:56;20.30;43.20
68354;DHT22;55274;43.060;25.618;2024-02-23T13:35:22;20.20;44.30
68354;DHT22;55274;43.060;25.618;2024-02-23T13:37:48;20.10;42.40
68354;DHT22;55274;43.060;25.618;2024-02-23T13:40:14;20.10;44.20
68354;DHT22;55274;43.060;25.618;2024-02-23T13:42:40;20.10;44.60
68354;DHT22;55274;43.060;25.618;2024-02-23T13:45:07;20.10;45.50
68354;DHT22;55274;43.060;25.618;2024-02-23T13:47:36;20.00;46.40
68354;DHT22;55274;43.060;25.618;2024-02-23T13:50:02;19.90;47.40
68354;DHT22;55274;43.060;25.618;2024-02-23T13:52:29;19.90;46.00
68354;DHT22;55274;43.060;25.618;2024-02-23T13:54:55;19.80;45.80
68354;DHT22;55274;43.060;25.618;2024-02-23T13:57:21;19.70;46.20
68354;DHT22;55274;43.060;25.618;2024-02-23T13:59:47;19.60;47.40
68354;DHT22;55274;43.060;25.618;2024-02-23T14:02:13;19.60;44.80
68354;DHT22;55274;43.060;25.618;2024-02-23T14:04:40;19.50;44.00
68354;DHT22;55274;43.060;25.618;2024-02-23T14:07:06;19.60;45.10
68354;DHT22;55274;43.060;25.618;2024-02-23T14:09:32;19.60;44.80
68354;DHT22;55274;43.060;25.618;2024-02-23T14:11:58;19.60;44.90
68354;DHT22;55274;43.060;25.618;2024-02-23T14:14:24;19.50;44.40
68354;DHT22;55274;43.060;25.618;2024-02-23T14:16:50;19.50;44.40
68354;DHT22;55274;43.060;25.618;2024-02-23T14:19:15;19.50;43.60
68354;DHT22;55274;43.060;25.618;2024-02-23T14:21:41;19.40;43.70
68354;DHT22;55274;43.060;25.618;2024-02-23T14:24:07;19.40;44.80
68354;DHT22;55274;43.060;25.618;2024-02-23T14:26:33;19.40;44.30
68354;DHT22;55274;43.060;25.618;2024-02-23T14:28:59;19.30;45.10
68354;DHT22;55274;43.060;25.618;2024-02-23T14:31:25;19.30;45.00
68354;DHT22;55274;43.060;25.618;2024-02-23T14:33:51;19.20;44.70
68354;DHT22;55274;43.060;25.618;2024-02-23T14:36:18;19.20;45.20
68354;DHT22;55274;43.060;25.618;2024-02-23T14:38:44;19.10;46.00
68354;DHT22;55274;43.060;25.618;2024-02-23T14:41:10;19.00;45.10
68354;DHT22;55274;43.060;25.618;2024-02-23T14:43:36;19.00;45.50
68354;DHT22;55274;43.060;25.618;2024-02-23T14:46:03;18.90;45.00
68354;DHT22;55274;43.060;25.618;2024-02-23T14:48:30;18.90;46.50
68354;DHT22;55274;43.060;25.618;2024-02-23T14:50:56;18.80;46.30
68354;DHT22;55274;43.060;25.618;2024-02-23T14:53:23;18.80;47.80
68354;DHT22;55274;43.060;25.618;2024-02-23T14:55:49;18.60;50.10
68354;DHT22;55274;43.060;25.618;2024-02-23T14:58:15;18.50;48.30
68354;DHT22;55274;43.060;25.618;2024-02-23T15:00:41;18.40;51.70
68354;DHT22;55274;43.060;25.618;2024-02-23T15:03:07;18.20;50.20
68354;DHT22;55274;43.060;25.618;2024-02-23T15:05:34;18.10;53.20
68354;DHT22;55274;43.060;25.618;2024-02-23T15:08:00;17.90;53.30
68354;DHT22;55274;43.060;25.618;2024-02-23T15:10:26;17.70;55.10
68354;DHT22;55274;43.060;25.618;2024-02-23T15:12:53;17.50;56.10
68354;DHT22;55274;43.060;25.618;2024-02-23T15:15:20;17.30;56.20
68354;DHT22;55274;43.060;25.618;2024-02-23T15:17:45;17.10;57.50
68354;DHT22;55274;43.060;25.618;2024-02-23T15:20:13;16.90;57.50
68354;DHT22;55274;43.060;25.618;2024-02-23T15:22:38;16.80;58.50
68354;DHT22;55274;43.060;25.618;2024-02-23T15:25:08;16.60;59.00
68354;DHT22;55274;43.060;25.618;2024-02-23T15:27:35;16.50;59.80
68354;DHT22;55274;43.060;25.618;2024-02-23T15:30:01;16.40;59.20
68354;DHT22;55274;43.060;25.618;2024-02-23T15:32:27;16.40;59.00
68354;DHT22;55274;43.060;25.618;2024-02-23T15:34:52;16.20;62.40
68354;DHT22;55274;43.060;25.618;2024-02-23T15:37:18;16.10;61.20
68354;DHT22;55274;43.060;25.618;2024-02-23T15:39:44;16.00;62.70
68354;DHT22;55274;43.060;25.618;2024-02-23T15:42:10;15.80;61.60
68354;DHT22;55274;43.060;25.618;2024-02-23T15:44:38;15.80;60.00
68354;DHT22;55274;43.060;25.618;2024-02-23T15:47:04;15.80;61.90
68354;DHT22;55274;43.060;25.618;2024-02-23T15:49:30;15.60;61.90
68354;DHT22;55274;43.060;25.618;2024-02-23T15:51:56;15.60;62.00
68354;DHT22;55274;43.060;25.618;2024-02-23T15:54:21;15.40;63.90
68354;DHT22;55274;43.060;25.618;2024-02-23T15:56:47;15.30;62.90
68354;DHT22;55274;43.060;25.618;2024-02-23T15:59:13;15.20;63.80
68354;DHT22;55274;43.060;25.618;2024-02-23T16:01:38;15.00;63.60
68354;DHT22;55274;43.060;25.618;2024-02-23T16:04:04;15.00;63.00
68354;DHT22;55274;43.060;25.618;2024-02-23T16:06:30;15.00;62.10
68354;DHT22;55274;43.060;25.618;2024-02-23T16:08:59;15.10;63.80
68354;DHT22;55274;43.060;25.618;2024-02-23T16:11:25;14.90;65.50
68354;DHT22;55274;43.060;25.618;2024-02-23T16:13:50;14.80;65.20
68354;DHT22;55274;43.060;25.618;2024-02-23T16:16:17;14.70;65.10
68354;DHT22;55274;43.060;25.618;2024-02-23T16:18:43;14.60;65.90
68354;DHT22;55274;43.060;25.618;2024-02-23T16:21:08;14.50;67.00
68354;DHT22;55274;43.060;25.618;2024-02-23T16:23:44;14.30;66.40
68354;DHT22;55274;43.060;25.618;2024-02-23T16:26:10;14.20;67.40
68354;DHT22;55274;43.060;25.618;2024-02-23T16:28:36;14.10;68.20
68354;DHT22;55274;43.060;25.618;2024-02-23T16:31:02;14.00;67.90
68354;DHT22;55274;43.060;25.618;2024-02-23T16:33:28;13.90;69.30
68354;DHT22;55274;43.060;25.618;2024-02-23T16:35:55;13.80;69.10
68354;DHT22;55274;43.060;25.618;2024-02-23T16:38:25;13.70;70.30
68354;DHT22;55274;43.060;25.618;2024-02-23T16:40:50;13.60;70.70
68354;DHT22;55274;43.060;25.618;2024-02-23T16:43:19;13.50;71.10
68354;DHT22;55274;43.060;25.618;2024-02-23T16:45:45;13.40;70.80
68354;DHT22;55274;43.060;25.618;2024-02-23T16:48:11;13.30;71.90
68354;DHT22;55274;43.060;25.618;2024-02-23T16:50:38;13.20;71.20
68354;DHT22;55274;43.060;25.618;2024-02-23T16:53:06;13.20;71.50
68354;DHT22;55274;43.060;25.618;2024-02-23T16:55:32;13.10;73.20
68354;DHT22;55274;43.060;25.618;2024-02-23T16:57:58;13.10;73.70
68354;DHT22;55274;43.060;25.618;2024-02-23T17:00:24;13.00;74.50
68354;DHT22;55274;43.060;25.618;2024-02-23T17:02:52;13.00;74.80
68354;DHT22;55274;43.060;25.618;2024-02-23T17:05:20;13.00;75.00
68354;DHT22;55274;43.060;25.618;2024-02-23T17:07:47;12.90;75.50
68354;DHT22;55274;43.060;25.618;2024-02-23T17:10:13;12.80;75.30
68354;DHT22;55274;43.060;25.618;2024-02-23T17:12:38;12.70;74.70
68354;DHT22;55274;43.060;25.618;2024-02-23T17:15:07;12.70;74.90
68354;DHT22;55274;43.060;25.618;2024-02-23T17:17:33;12.70;74.00
68354;DHT22;55274;43.060;25.618;2024-02-23T17:19:59;12.60;75.10
68354;DHT22;55274;43.060;25.618;2024-02-23T17:22:25;12.60;75.10
68354;DHT22;55274;43.060;25.618;2024-02-23T17:24:52;12.50;75.80
68354;DHT22;55274;43.060;25.618;2024-02-23T17:27:18;12.50;76.00
68354;DHT22;55274;43.060;25.618;2024-02-23T17:29:43;12.40;75.20
68354;DHT22;55274;43.060;25.618;2024-02-23T17:32:09;12.40;75.50
68354;DHT22;55274;43.060;25.618;2024-02-23T17:34:35;12.30;75.70
68354;DHT22;55274;43.060;25.618;2024-02-23T17:37:01;12.20;75.80
68354;DHT22;55274;43.060;25.618;2024-02-23T17:39:27;12.10;76.30
68354;DHT22;55274;43.060;25.618;2024-02-23T17:41:53;12.10;76.20
68354;DHT22;55274;43.060;25.618;2024-02-23T17:44:20;12.10;76.60
68354;DHT22;55274;43.060;25.618;2024-02-23T17:46:46;12.00;77.00
68354;DHT22;55274;43.060;25.618;2024-02-23T17:49:15;11.90;77.50
68354;DHT22;55274;43.060;25.618;2024-02-23T17:51:41;11.80;77.30
68354;DHT22;55274;43.060;25.618;2024-02-23T17:54:08;11.70;78.40
68354;DHT22;55274;43.060;25.618;2024-02-23T17:56:33;11.70;77.50
68354;DHT22;55274;43.060;25.618;2024-02-23T17:58:59;11.70;78.70
68354;DHT22;55274;43.060;25.618;2024-02-23T18:01:25;11.60;79.80
68354;DHT22;55274;43.060;25.618;2024-02-23T18:03:50;11.60;79.90
68354;DHT22;55274;43.060;25.618;2024-02-23T18:06:16;11.50;79.40
68354;DHT22;55274;43.060;25.618;2024-02-23T18:08:43;11.40;79.70
68354;DHT22;55274;43.060;25.618;2024-02-23T18:11:09;11.40;80.20
68354;DHT22;55274;43.060;25.618;2024-02-23T18:13:35;11.40;80.40
68354;DHT22;55274;43.060;25.618;2024-02-23T18:16:03;11.30;80.30
68354;DHT22;55274;43.060;25.618;2024-02-23T18:18:35;11.10;79.60
68354;DHT22;55274;43.060;25.618;2024-02-23T18:21:02;11.00;80.10
68354;DHT22;55274;43.060;25.618;2024-02-23T18:23:28;11.00;80.60
68354;DHT22;55274;43.060;25.618;2024-02-23T18:25:53;11.00;81.50
68354;DHT22;55274;43.060;25.618;2024-02-23T18:28:19;10.90;81.80
68354;DHT22;55274;43.060;25.618;2024-02-23T18:30:45;10.90;81.80
68354;DHT22;55274;43.060;25.618;2024-02-23T18:33:10;10.80;81.90
68354;DHT22;55274;43.060;25.618;2024-02-23T18:35:36;10.70;82.60
68354;DHT22;55274;43.060;25.618;2024-02-23T18:38:02;10.80;82.30
68354;DHT22;55274;43.060;25.618;2024-02-23T18:40:28;10.70;82.40
68354;DHT22;55274;43.060;25.618;2024-02-23T18:42:54;10.70;82.90
68354;DHT22;55274;43.060;25.618;2024-02-23T18:45:20;10.60;83.00
68354;DHT22;55274;43.060;25.618;2024-02-23T18:47:47;10.60;82.90
68354;DHT22;55274;43.060;25.618;2024-02-23T18:50:13;10.50;83.30
68354;DHT22;55274;43.060;25.618;2024-02-23T18:52:39;10.50;83.30
68354;DHT22;55274;43.060;25.618;2024-02-23T18:55:05;10.40;83.10
68354;DHT22;55274;43.060;25.618;2024-02-23T18:57:34;10.30;83.00
68354;DHT22;55274;43.060;25.618;2024-02-23T19:00:00;10.10;83.30
68354;DHT22;55274;43.060;25.618;2024-02-23T19:02:25;10.20;84.70
68354;DHT22;55274;43.060;25.618;2024-02-23T19:04:51;10.20;84.90
68354;DHT22;55274;43.060;25.618;2024-02-23T19:07:17;10.10;84.70
68354;DHT22;55274;43.060;25.618;2024-02-23T19:09:43;10.10;84.70
68354;DHT22;55274;43.060;25.618;2024-02-23T19:12:09;10.00;85.30
68354;DHT22;55274;43.060;25.618;2024-02-23T19:14:36;10.00;85.60
68354;DHT22;55274;43.060;25.618;2024-02-23T19:17:02;9.90;85.70
68354;DHT22;55274;43.060;25.618;2024-02-23T19:19:28;9.80;85.70
68354;DHT22;55274;43.060;25.618;2024-02-23T19:21:53;9.80;86.60
68354;DHT22;55274;43.060;25.618;2024-02-23T19:24:20;9.70;87.00
68354;DHT22;55274;43.060;25.618;2024-02-23T19:26:46;9.70;87.50
68354;DHT22;55274;43.060;25.618;2024-02-23T19:29:13;9.60;87.50
68354;DHT22;55274;43.060;25.618;2024-02-23T19:31:39;9.60;87.30
68354;DHT22;55274;43.060;25.618;2024-02-23T19:34:05;9.50;87.60
68354;DHT22;55274;43.060;25.618;2024-02-23T19:36:32;9.50;88.10
68354;DHT22;55274;43.060;25.618;2024-02-23T19:38:58;9.50;88.60
68354;DHT22;55274;43.060;25.618;2024-02-23T19:41:25;9.50;89.20
68354;DHT22;55274;43.060;25.618;2024-02-23T19:43:51;9.40;88.90
68354;DHT22;55274;43.060;25.618;2024-02-23T19:46:16;9.30;88.60
68354;DHT22;55274;43.060;25.618;2024-02-23T19:48:47;9.30;88.70
68354;DHT22;55274;43.060;25.618;2024-02-23T19:51:14;9.30;89.30
68354;DHT22;55274;43.060;25.618;2024-02-23T19:53:40;9.20;89.30
68354;DHT22;55274;43.060;25.618;2024-02-23T19:56:09;9.20;89.80
68354;DHT22;55274;43.060;25.618;2024-02-23T19:58:35;9.20;89.90
68354;DHT22;55274;43.060;25.618;2024-02-23T20:01:00;9.20;91.00
68354;DHT22;55274;43.060;25.618;2024-02-23T20:03:26;9.10;91.40
68354;DHT22;55274;43.060;25.618;2024-02-23T20:05:52;9.00;90.30
68354;DHT22;55274;43.060;25.618;2024-02-23T20:08:18;9.00;90.60
68354;DHT22;55274;43.060;25.618;2024-02-23T20:10:45;8.90;90.60
68354;DHT22;55274;43.060;25.618;2024-02-23T20:13:11;8.90;91.20
68354;DHT22;55274;43.060;25.618;2024-02-23T20:15:39;8.90;92.00
68354;DHT22;55274;43.060;25.618;2024-02-23T20:18:06;8.80;92.10
68354;DHT22;55274;43.060;25.618;2024-02-23T20:20:32;8.70;92.60
68354;DHT22;55274;43.060;25.618;2024-02-23T20:23:01;8.70;92.50
68354;DHT22;55274;43.060;25.618;2024-02-23T20:25:26;8.70;92.70
68354;DHT22;55274;43.060;25.618;2024-02-23T20:27:52;8.60;92.90
68354;DHT22;55274;43.060;25.618;2024-02-23T20:30:18;8.50;93.30
68354;DHT22;55274;43.060;25.618;2024-02-23T20:32:44;8.50;93.40
68354;DHT22;55274;43.060;25.618;2024-02-23T20:35:09;8.40;93.90
68354;DHT22;55274;43.060;25.618;2024-02-23T20:37:36;8.40;94.50
68354;DHT22;55274;43.060;25.618;2024-02-23T20:40:04;8.40;94.80
68354;DHT22;55274;43.060;25.618;2024-02-23T20:42:31;8.30;95.20
68354;DHT22;55274;43.060;25.618;2024-02-23T20:44:56;8.30;95.80
68354;DHT22;55274;43.060;25.618;2024-02-23T20:47:22;8.20;96.50
68354;DHT22;55274;43.060;25.618;2024-02-23T20:49:49;8.20;97.20
68354;DHT22;55274;43.060;25.618;2024-02-23T20:52:15;8.20;97.20
68354;DHT22;55274;43.060;25.618;2024-02-23T20:54:45;8.20;97.30
68354;DHT22;55274;43.060;25.618;2024-02-23T20:57:16;8.10;97.60
68354;DHT22;55274;43.060;25.618;2024-02-23T20:59:42;8.10;98.10
68354;DHT22;55274;43.060;25.618;2024-02-23T21:02:08;8.10;98.70
68354;DHT22;55274;43.060;25.618;2024-02-23T21:04:34;8.10;98.40
68354;DHT22;55274;43.060;25.618;2024-02-23T21:07:01;8.10;99.00
68354;DHT22;55274;43.060;25.618;2024-02-23T21:09:27;8.00;99.00
68354;DHT22;55274;43.060;25.618;2024-02-23T21:11:52;8.00;99.60
68354;DHT22;55274;43.060;25.618;2024-02-23T21:14:18;8.00;99.90
68354;DHT22;55274;43.060;25.618;2024-02-23T21:16:44;8.00;99.90
68354;DHT22;55274;43.060;25.618;2024-02-23T21:19:10;8.00;99.90
68354;DHT22;55274;43.060;25.618;2024-02-23T21:21:36;8.00;99.90
68354;DHT22;55274;43.060;25.618;2024-02-23T21:24:02;8.00;99.90
68354;DHT22;55274;43.060;25.618;2024-02-23T21:26:32;8.00;99.90
68354;DHT22;55274;43.060;25.618;2024-02-23T21:28:58;8.00;99.90
68354;DHT22;55274;43.060;25.618;2024-02-23T21:31:24;8.00;99.90
68354;DHT22;55274;43.060;25.618;2024-02-23T21:33:49;8.00;99.90
68354;DHT22;55274;43.060;25.618;2024-02-23T21:36:22;7.90;99.90
68354;DHT22;55274;43.060;25.618;2024-02-23T21:38:49;8.00;99.90
68354;DHT22;55274;43.060;25.618;2024-02-23T21:41:15;7.90;99.90
68354;DHT22;55274;43.060;25.618;2024-02-23T21:43:43;7.90;99.90
68354;DHT22;55274;43.060;25.618;2024-02-23T21:46:09;7.90;99.90
68354;DHT22;55274;43.060;25.618;2024-02-23T21:48:41;7.90;99.90
68354;DHT22;55274;43.060;25.618;2024-02-23T21:51:08;7.90;99.90
68354;DHT22;55274;43.060;25.618;2024-02-23T21:53:35;7.90;99.90
68354;DHT22;55274;43.060;25.618;2024-02-23T21:56:02;7.90;99.90
68354;DHT22;55274;43.060;25.618;2024-02-23T21:58:30;8.00;99.90
68354;DHT22;55274;43.060;25.618;2024-02-23T22:00:57;7.90;99.90
68354;DHT22;55274;43.060;25.618;2024-02-23T22:03:23;8.00;99.90
68354;DHT22;55274;43.060;25.618;2024-02-23T22:05:50;7.90;99.90
68354;DHT22;55274;43.060;25.618;2024-02-23T22:08:16;7.80;99.90
68354;DHT22;55274;43.060;25.618;2024-02-23T22:10:41;7.80;99.90
68354;DHT22;55274;43.060;25.618;2024-02-23T22:13:07;7.90;99.90
68354;DHT22;55274;43.060;25.618;2024-02-23T22:15:33;7.80;99.90
68354;DHT22;55274;43.060;25.618;2024-02-23T22:17:59;7.80;99.90
68354;DHT22;55274;43.060;25.618;2024-02-23T22:20:28;7.60;99.90
68354;DHT22;55274;43.060;25.618;2024-02-23T22:22:54;7.60;99.90
68354;DHT22;55274;43.060;25.618;2024-02-23T22:25:20;7.60;99.90
68354;DHT22;55274;43.060;25.618;2024-02-23T22:27:46;7.60;99.90
68354;DHT22;55274;43.060;25.618;2024-02-23T22:30:12;7.50;99.90
68354;DHT22;55274;43.060;25.618;2024-02-23T22:32:38;7.40;99.90
68354;DHT22;55274;43.060;25.618;2024-02-23T22:35:05;7.40;99.90
68354;DHT22;55274;43.060;25.618;2024-02-23T22:37:30;7.40;99.90
68354;DHT22;55274;43.060;25.618;2024-02-23T22:39:58;7.40;99.90
68354;DHT22;55274;43.060;25.618;2024-02-23T22:42:24;7.50;99.90
68354;DHT22;55274;43.060;25.618;2024-02-23T22:44:50;7.50;99.90
68354;DHT22;55274;43.060;25.618;2024-02-23T22:47:16;7.40;99.90
68354;DHT22;55274;43.060;25.618;2024-02-23T22:49:42;7.30;99.90
68354;DHT22;55274;43.060;25.618;2024-02-23T22:52:08;7.20;99.90
68354;DHT22;55274;43.060;25.618;2024-02-23T22:54:34;7.20;99.90
68354;DHT22;55274;43.060;25.618;2024-02-23T22:57:00;7.20;99.90
68354;DHT22;55274;43.060;25.618;2024-02-23T22:59:26;7.10;99.90
68354;DHT22;55274;43.060;25.618;2024-02-23T23:01:51;7.10;99.90
68354;DHT22;55274;43.060;25.618;2024-02-23T23:04:17;7.00;99.90
68354;DHT22;55274;43.060;25.618;2024-02-23T23:06:43;7.00;99.90
68354;DHT22;55274;43.060;25.618;2024-02-23T23:09:13;7.00;99.90
68354;DHT22;55274;43.060;25.618;2024-02-23T23:11:40;7.00;99.90
68354;DHT22;55274;43.060;25.618;2024-02-23T23:14:07;7.00;99.90
68354;DHT22;55274;43.060;25.618;2024-02-23T23:16:33;6.90;99.90
68354;DHT22;55274;43.060;25.618;2024-02-23T23:18:59;6.90;99.90
68354;DHT22;55274;43.060;25.618;2024-02-23T23:21:25;6.80;99.90
68354;DHT22;55274;43.060;25.618;2024-02-23T23:23:51;6.80;99.90
68354;DHT22;55274;43.060;25.618;2024-02-23T23:26:18;6.70;99.90
68354;DHT22;55274;43.060;25.618;2024-02-23T23:28:45;6.70;99.90
68354;DHT22;55274;43.060;25.618;2024-02-23T23:31:12;6.60;99.90
68354;DHT22;55274;43.060;25.618;2024-02-23T23:33:37;6.60;99.90
68354;DHT22;55274;43.060;25.618;2024-02-23T23:36:05;6.60;99.90
68354;DHT22;55274;43.060;25.618;2024-02-23T23:38:31;6.50;99.90
68354;DHT22;55274;43.060;25.618;2024-02-23T23:40:57;6.50;99.90
68354;DHT22;55274;43.060;25.618;2024-02-23T23:43:23;6.50;99.90
68354;DHT22;55274;43.060;25.618;2024-02-23T23:45:49;6.50;99.90
68354;DHT22;55274;43.060;25.618;2024-02-23T23:48:16;6.50;99.90
68354;DHT22;55274;43.060;25.618;2024-02-23T23:50:42;6.40;99.90
68354;DHT22;55274;43.060;25.618;2024-02-23T23:53:08;6.40;99.90
68354;DHT22;55274;43.060;25.618;2024-02-23T23:55:33;6.40;99.90
68354;DHT22;55274;43.060;25.618;2024-02-23T23:57:59;6.40;99.90
